Time;durP1;ratioP1;P1;durP2;ratioP2;P2;SDS_P1;SDS_P2;PMS_P1;PMS_P2;Temp;Humidity;BMP_temperature;BMP_pressure;BME280_temperature;BME280_humidity;BME280_pressure;Samples;Min_cycle;Max_cycle;Signal;HPM_P1;HPM_P2
2022/12/04 00:01:54;;;;;;;68.70;39.73;;;;;;;-0.13;97.28;101617.06;5285368;28;20116;-72
2022/12/04 00:04:26;;;;;;;64.80;36.50;;;;;;;-0.10;97.21;101616.31;5285301;28;20451;-73
2022/12/04 00:06:57;;;;;;;72.83;39.37;;;;;;;-0.10;97.56;101608.59;5285373;28;20085;-73
2022/12/04 00:09:28;;;;;;;68.40;39.10;;;;;;;-0.14;97.38;101606.75;5285309;28;20035;-74
2022/12/04 00:12:00;;;;;;;65.87;36.73;;;;;;;-0.14;96.94;101609.31;5284806;28;20070;-74
2022/12/04 00:14:31;;;;;;;62.23;36.63;;;;;;;-0.16;96.89;101606.66;5285092;28;20432;-76
2022/12/04 00:17:02;;;;;;;71.40;39.67;;;;;;;-0.15;97.29;101598.16;5284937;28;20048;-77
2022/12/04 00:19:34;;;;;;;60.80;36.50;;;;;;;-0.14;97.37;101599.91;5285239;28;20033;-75
2022/12/04 00:22:05;;;;;;;62.40;38.57;;;;;;;-0.18;97.63;101603.13;5285290;28;20033;-75
2022/12/04 00:24:37;;;;;;;65.30;35.60;;;;;;;-0.19;97.54;101597.16;5266929;28;20047;-75
2022/12/04 00:27:08;;;;;;;66.47;37.27;;;;;;;-0.16;97.42;101595.53;5284901;28;20363;-75
2022/12/04 00:29:39;;;;;;;66.70;37.13;;;;;;;-0.15;97.66;101597.28;5284444;28;20467;-74
2022/12/04 00:32:11;;;;;;;61.77;36.37;;;;;;;-0.14;97.15;101594.78;5284428;28;20044;-75
2022/12/04 00:34:42;;;;;;;64.10;38.10;;;;;;;-0.13;97.59;101604.25;5284884;28;20435;-75
2022/12/04 00:37:13;;;;;;;62.73;37.33;;;;;;;-0.10;97.63;101599.22;5284265;28;20028;-75
2022/12/04 00:39:45;;;;;;;61.33;37.53;;;;;;;-0.17;97.55;101604.03;5267028;28;20028;-75
2022/12/04 00:42:16;;;;;;;65.27;36.30;;;;;;;-0.18;97.58;101598.00;5284208;28;20032;-75
2022/12/04 00:44:47;;;;;;;63.27;36.93;;;;;;;-0.21;97.67;101598.78;5296063;28;20096;-74
2022/12/04 00:47:19;;;;;;;63.57;36.03;;;;;;;-0.21;98.12;101591.09;5299094;28;20041;-75
2022/12/04 00:49:51;;;;;;;62.70;37.10;;;;;;;-0.26;97.75;101595.13;5286924;28;20032;-75
2022/12/04 00:52:22;;;;;;;61.60;36.07;;;;;;;-0.21;98.09;101596.22;5284633;28;20043;-75
2022/12/04 00:54:54;;;;;;;63.57;36.73;;;;;;;-0.22;98.01;101588.47;5284863;28;20028;-75
2022/12/04 00:57:25;;;;;;;59.80;35.22;;;;;;;-0.21;98.32;101592.75;5284366;28;20033;-75
2022/12/04 00:59:57;;;;;;;68.13;36.30;;;;;;;-0.18;98.09;101587.75;5284394;28;20384;-75
2022/12/04 01:02:29;;;;;;;67.37;37.33;;;;;;;-0.19;98.43;101596.28;5266524;28;20029;-75
2022/12/04 01:05:01;;;;;;;65.38;37.63;;;;;;;-0.18;98.35;101595.44;5284275;28;20089;-75
2022/12/04 01:07:32;;;;;;;67.03;36.63;;;;;;;-0.18;98.50;101600.56;5284151;28;20032;-75
2022/12/04 01:10:07;;;;;;;63.67;34.57;;;;;;;-0.14;98.70;101607.59;5284498;28;20033;-75
2022/12/04 01:12:39;;;;;;;64.90;38.15;;;;;;;-0.16;98.65;101598.97;5284201;28;20078;-75
2022/12/04 01:15:10;;;;;;;64.57;37.20;;;;;;;-0.16;98.03;101600.66;5283812;28;20066;-75
2022/12/04 01:17:42;;;;;;;61.10;36.77;;;;;;;-0.20;98.22;101599.66;5284532;28;20456;-76
2022/12/04 01:20:13;;;;;;;64.50;37.03;;;;;;;-0.17;98.10;101602.34;5266638;28;20078;-76
2022/12/04 01:22:45;;;;;;;64.17;37.77;;;;;;;-0.20;98.48;101607.31;5284551;28;20024;-76
2022/12/04 01:25:16;;;;;;;59.93;37.00;;;;;;;-0.16;98.14;101604.09;5284103;28;20060;-77
2022/12/04 01:27:47;;;;;;;68.37;37.80;;;;;;;-0.21;98.09;101613.25;5266315;28;20032;-75
2022/12/04 01:30:19;;;;;;;64.07;37.57;;;;;;;-0.20;98.29;101610.75;5284025;28;20112;-78
2022/12/04 01:32:50;;;;;;;69.63;37.27;;;;;;;-0.22;98.42;101606.41;5266269;28;20094;-77
2022/12/04 01:35:22;;;;;;;62.23;37.90;;;;;;;-0.16;98.21;101614.34;5283841;28;20108;-77
2022/12/04 01:37:53;;;;;;;59.40;37.93;;;;;;;-0.15;98.59;101615.22;5283886;28;20379;-77
2022/12/04 01:40:24;;;;;;;59.60;36.20;;;;;;;-0.16;98.08;101616.03;5283860;28;20074;-77
2022/12/04 01:42:58;;;;;;;68.33;37.17;;;;;;;-0.15;98.19;101615.22;5283566;28;20024;-77
2022/12/04 01:45:29;;;;;;;63.53;36.45;;;;;;;-0.17;98.07;101612.59;5281689;28;20135;-77
2022/12/04 01:48:09;;;;;;;63.47;38.33;;;;;;;-0.07;98.70;101603.63;5283336;28;20120;-77
2022/12/04 01:50:42;;;;;;;63.08;37.15;;;;;;;-0.09;98.31;101601.00;5283711;28;20025;-77
2022/12/04 01:53:14;;;;;;;61.83;38.42;;;;;;;-0.15;98.08;101593.03;5265660;28;20514;-77
2022/12/04 01:55:47;;;;;;;58.93;36.67;;;;;;;-0.08;98.34;101597.63;5284125;28;20033;-77
2022/12/04 01:58:23;;;;;;;65.97;39.28;;;;;;;-0.12;98.18;101589.72;5283444;28;20032;-78
2022/12/04 02:01:00;;;;;;;69.80;39.17;;;;;;;-0.15;98.21;101592.16;5266309;28;20036;-77
2022/12/04 02:03:31;;;;;;;60.08;37.28;;;;;;;-0.12;98.06;101587.19;5283788;28;20585;-78
2022/12/04 02:06:03;;;;;;;60.73;37.27;;;;;;;-0.15;97.73;101593.03;5283590;28;20112;-78
2022/12/04 02:08:36;;;;;;;63.33;36.80;;;;;;;-0.16;98.21;101596.41;5265672;28;20476;-78
2022/12/04 02:11:29;;;;;;;66.30;38.40;;;;;;;-0.19;98.15;101588.59;5265387;28;20028;-77
2022/12/04 02:14:29;;;;;;;66.07;39.05;;;;;;;-0.20;98.08;101591.97;5283480;28;20028;-75
2022/12/04 02:17:15;;;;;;;64.07;37.35;;;;;;;-0.15;98.72;101587.03;5282640;28;20070;-77
2022/12/04 02:20:10;;;;;;;58.85;35.80;;;;;;;-0.19;98.58;101586.91;5284113;28;20103;-78
2022/12/04 02:22:58;;;;;;;63.03;37.95;;;;;;;-0.16;98.22;101582.72;5287730;28;20082;-77
2022/12/04 02:26:11;;;;;;;62.47;36.58;;;;;;;-0.18;98.66;101582.63;5288050;28;20036;-77
2022/12/04 02:29:10;;;;;;;62.53;39.22;;;;;;;-0.19;98.63;101593.72;5258942;28;20037;-75
2022/12/04 02:31:55;;;;;;;67.30;37.38;;;;;;;-0.20;98.32;101592.81;5287652;28;20123;-77
2022/12/04 02:34:32;;;;;;;60.38;36.38;;;;;;;-0.17;98.80;101576.72;5287487;28;20111;-77
2022/12/04 02:37:18;;;;;;;63.80;38.38;;;;;;;-0.15;98.31;101587.03;5287250;28;20024;-78
2022/12/04 02:40:03;;;;;;;59.00;35.55;;;;;;;-0.16;98.40;101583.59;5287442;28;20418;-77
2022/12/04 02:43:06;;;;;;;55.13;35.22;;;;;;;-0.16;98.28;101583.59;5287239;28;20482;-77
2022/12/04 02:45:44;;;;;;;56.53;35.75;;;;;;;-0.19;98.14;101578.34;5268942;28;20056;-77
2022/12/04 02:48:20;;;;;;;61.25;36.30;;;;;;;-0.20;98.09;101586.84;5287434;28;20040;-76
2022/12/04 02:50:56;;;;;;;59.42;37.13;;;;;;;-0.26;98.09;101582.31;5286504;28;20028;-77
2022/12/04 02:53:33;;;;;;;61.28;37.28;;;;;;;-0.20;98.32;101581.69;5287079;28;20043;-77
2022/12/04 02:56:10;;;;;;;63.55;38.33;;;;;;;-0.19;98.41;101580.91;5287697;28;20031;-77
2022/12/04 02:59:03;;;;;;;62.45;37.42;;;;;;;-0.20;98.50;101572.31;5268841;28;20471;-77
2022/12/04 03:01:39;;;;;;;62.33;38.22;;;;;;;-0.21;98.15;101567.13;5286872;28;20459;-78
2022/12/04 03:04:17;;;;;;;64.35;38.20;;;;;;;-0.31;98.00;101570.97;5268547;28;20040;-78
2022/12/04 03:06:53;;;;;;;61.10;37.58;;;;;;;-0.32;98.01;101574.38;5269713;28;20444;-78
2022/12/04 03:09:34;;;;;;;62.33;38.40;;;;;;;-0.24;98.27;101578.13;5269052;28;20037;-77
2022/12/04 03:12:19;;;;;;;57.53;38.13;;;;;;;-0.26;98.11;101569.53;5286802;28;20036;-77
2022/12/04 03:14:59;;;;;;;63.38;37.65;;;;;;;-0.24;98.13;101569.56;5286673;28;20024;-78
2022/12/04 03:17:37;;;;;;;66.13;39.67;;;;;;;-0.28;98.09;101568.56;5286352;28;20472;-78
2022/12/04 03:20:11;;;;;;;62.30;37.05;;;;;;;-0.26;98.39;101574.63;5286627;28;20028;-77
2022/12/04 03:22:49;;;;;;;65.95;39.97;;;;;;;-0.29;97.86;101573.59;5286560;28;20071;-77
2022/12/04 03:25:31;;;;;;;54.65;36.25;;;;;;;-0.25;98.18;101567.81;5286655;28;20052;-77
2022/12/04 03:28:15;;;;;;;65.22;39.88;;;;;;;-0.26;98.15;101566.97;5286598;28;20448;-77
2022/12/04 03:30:58;;;;;;;63.28;39.90;;;;;;;-0.22;98.25;101573.09;5287202;28;20040;-76
2022/12/04 03:33:37;;;;;;;62.58;39.67;;;;;;;-0.29;97.68;101563.34;5286856;28;20028;-77
2022/12/04 03:36:15;;;;;;;67.40;41.17;;;;;;;-0.25;97.92;101568.69;5285837;28;20025;-77
2022/12/04 03:38:59;;;;;;;62.75;39.13;;;;;;;-0.29;98.16;101563.34;5286465;28;20033;-77
2022/12/04 03:41:53;;;;;;;65.68;40.70;;;;;;;-0.26;98.50;101555.81;5286411;28;20119;-78
2022/12/04 03:44:36;;;;;;;60.70;37.35;;;;;;;-0.25;98.50;101560.13;5286463;28;20029;-77
2022/12/04 03:47:13;;;;;;;68.10;40.55;;;;;;;-0.22;98.12;101557.72;5263414;28;20072;-77
2022/12/04 03:49:52;;;;;;;61.15;39.28;;;;;;;-0.25;98.25;101553.31;5265191;28;20045;-77
2022/12/04 03:52:33;;;;;;;64.53;38.90;;;;;;;-0.25;98.35;101553.31;5263526;28;20120;-77
2022/12/04 03:55:12;;;;;;;61.13;39.35;;;;;;;-0.24;98.11;101559.31;5265359;28;20444;-74
2022/12/04 03:57:46;;;;;;;65.32;40.80;;;;;;;-0.27;98.21;101552.38;5265108;28;20036;-74
2022/12/04 04:00:21;;;;;;;64.15;40.45;;;;;;;-0.29;98.25;101561.69;5264216;28;20534;-74
2022/12/04 04:03:01;;;;;;;65.38;40.40;;;;;;;-0.29;98.17;101558.22;5264485;28;20067;-76
2022/12/04 04:05:35;;;;;;;63.65;39.33;;;;;;;-0.26;98.50;101546.47;5265525;28;20040;-77
2022/12/04 04:08:26;;;;;;;64.13;40.55;;;;;;;-0.26;98.57;101549.03;5265801;28;20398;-76
2022/12/04 04:11:33;;;;;;;66.80;39.65;;;;;;;-0.25;97.96;101558.44;5265352;28;20106;-75
2022/12/04 04:26:02;;;;;;;62.05;40.58;;;;;;;-0.29;98.46;101558.22;5264541;28;20029;-74
2022/12/04 04:28:34;;;;;;;70.80;42.22;;;;;;;-0.32;98.46;101560.66;5263850;28;20029;-76
2022/12/04 04:31:18;;;;;;;;;;;;;;;-0.26;98.51;101553.25;5265124;28;20035;-76
2022/12/04 04:34:00;;;;;;;63.97;37.67;;;;;;;-0.28;98.52;101552.31;5264562;28;19912;-75
2022/12/04 04:36:47;;;;;;;62.38;39.25;;;;;;;-0.22;98.84;101550.03;5263736;28;20074;-75
2022/12/04 04:39:19;;;;;;;63.70;40.95;;;;;;;-0.28;98.41;101557.44;5264374;28;20037;-75
2022/12/04 04:41:58;;;;;;;62.60;39.77;;;;;;;-0.27;98.32;101552.38;5264236;28;20060;-75
2022/12/04 04:45:03;;;;;;;58.97;40.10;;;;;;;-0.22;98.18;101555.16;5262689;28;20037;-75
2022/12/04 04:47:46;;;;;;;68.32;41.08;;;;;;;-0.24;98.15;101552.50;5242496;28;20047;-76
2022/12/04 04:50:18;;;;;;;58.70;38.88;;;;;;;-0.29;98.27;101551.44;5264681;28;20510;-76
2022/12/04 04:52:55;;;;;;;65.18;40.63;;;;;;;-0.28;98.39;101557.44;5264089;28;20041;-76
2022/12/04 04:55:27;;;;;;;69.50;42.33;;;;;;;-0.27;98.47;101565.19;5263953;28;20453;-76
2022/12/04 04:58:14;;;;;;;66.95;40.88;;;;;;;-0.23;98.47;101561.94;5263776;28;20033;-76
2022/12/04 05:01:07;;;;;;;66.60;38.92;;;;;;;-0.21;97.91;101562.91;5263812;28;20029;-76
2022/12/04 05:03:39;;;;;;;64.43;40.35;;;;;;;-0.23;98.39;101563.63;5263750;28;20029;-76
2022/12/04 05:06:11;;;;;;;65.13;40.42;;;;;;;-0.20;98.49;101562.06;5264368;28;20032;-76
2022/12/04 05:08:43;;;;;;;62.90;38.77;;;;;;;-0.22;97.80;101570.53;5264096;28;20033;-76
2022/12/04 05:11:16;;;;;;;62.97;39.53;;;;;;;-0.21;98.29;101567.13;5262519;28;20572;-76
2022/12/04 05:13:47;;;;;;;64.68;39.10;;;;;;;-0.19;98.52;101560.41;5263752;28;20025;-75
2022/12/04 05:16:19;;;;;;;66.57;39.33;;;;;;;-0.22;97.91;101561.13;5262136;28;20518;-75
2022/12/04 05:21:40;;;;;;;64.97;39.80;;;;;;;-0.22;98.10;101565.41;5263651;28;20040;-76
2022/12/04 05:24:11;;;;;;;63.20;41.10;;;;;;;-0.23;98.40;101563.63;5263805;28;20116;-76
2022/12/04 05:26:43;;;;;;;69.30;42.70;;;;;;;-0.19;98.45;101562.97;5262873;28;20040;-76
2022/12/04 05:29:14;;;;;;;65.57;40.77;;;;;;;-0.23;98.22;101561.06;5263239;28;20029;-75
2022/12/04 05:31:45;;;;;;;68.00;40.47;;;;;;;-0.23;98.38;101561.06;5263022;28;20029;-75
2022/12/04 05:34:17;;;;;;;64.07;40.00;;;;;;;-0.24;98.49;101561.88;5262777;28;20036;-76
2022/12/04 05:36:48;;;;;;;66.93;40.33;;;;;;;-0.21;98.38;101560.34;5261868;28;20096;-75
2022/12/04 05:39:19;;;;;;;62.90;37.80;;;;;;;-0.21;98.64;101557.78;5263108;28;20028;-75
2022/12/04 05:41:51;;;;;;;66.23;40.67;;;;;;;-0.25;98.34;101563.56;5261716;28;20040;-75
2022/12/04 05:44:22;;;;;;;61.40;39.03;;;;;;;-0.23;98.33;101556.81;5263452;28;20112;-75
2022/12/04 05:46:54;;;;;;;61.47;38.60;;;;;;;-0.24;98.79;101552.50;5278427;28;20052;-75
2022/12/04 05:49:28;;;;;;;65.60;40.43;;;;;;;-0.21;98.66;101556.88;5283741;28;20036;-76
2022/12/04 05:52:01;;;;;;;63.22;38.47;;;;;;;-0.21;98.67;101549.19;5284074;28;20032;-76
2022/12/04 05:54:32;;;;;;;;;;;;;;;-0.14;98.71;101556.34;5284430;28;20028;-76
2022/12/04 05:57:04;;;;;;;67.47;40.20;;;;;;;-0.16;98.49;101545.16;5284439;28;19935;-77
2022/12/04 05:59:35;;;;;;;66.00;41.17;;;;;;;-0.22;98.89;101543.19;5283596;28;20051;-77
2022/12/04 06:02:07;;;;;;;68.63;41.90;;;;;;;-0.20;98.51;101545.84;5283646;28;20036;-76
2022/12/04 06:04:38;;;;;;;76.50;51.77;;;;;;;-0.24;98.90;101538.81;5283476;28;20036;-76
2022/12/04 06:07:10;;;;;;;66.90;41.10;;;;;;;-0.24;98.87;101539.69;5283435;28;20029;-76
2022/12/04 06:09:41;;;;;;;66.07;40.63;;;;;;;-0.24;99.23;101537.16;5283721;28;20028;-76
2022/12/04 06:12:13;;;;;;;70.23;44.20;;;;;;;-0.23;99.03;101533.75;5283448;28;20039;-75
2022/12/04 06:14:44;;;;;;;72.40;44.80;;;;;;;-0.21;99.01;101533.81;5283157;28;20108;-76
2022/12/04 06:17:16;;;;;;;73.07;43.43;;;;;;;-0.19;98.96;101537.34;5265213;28;20037;-76
2022/12/04 06:19:47;;;;;;;65.93;40.20;;;;;;;-0.17;99.55;101527.16;5283701;28;20418;-77
2022/12/04 06:22:19;;;;;;;65.57;41.17;;;;;;;-0.20;99.45;101543.28;5284251;28;20452;-76
2022/12/04 06:24:50;;;;;;;69.60;43.60;;;;;;;-0.19;99.32;101542.47;5283576;28;20029;-77
2022/12/04 06:27:22;;;;;;;64.60;41.77;;;;;;;-0.20;99.51;101548.41;5283412;28;20086;-77
2022/12/04 06:29:53;;;;;;;67.67;40.63;;;;;;;-0.21;99.51;101542.41;5283383;28;20115;-77
2022/12/04 06:32:24;;;;;;;70.60;45.47;;;;;;;-0.20;99.91;101546.69;5264920;28;20046;-76
2022/12/04 06:34:56;;;;;;;65.10;38.77;;;;;;;-0.18;99.56;101549.31;5283706;28;20407;-76
2022/12/04 06:37:27;;;;;;;64.13;40.63;;;;;;;-0.20;99.71;101550.97;5283528;28;20032;-76
2022/12/04 06:39:58;;;;;;;72.93;44.20;;;;;;;-0.19;99.85;101543.34;5283132;28;20128;-76
2022/12/04 06:42:30;;;;;;;80.97;52.17;;;;;;;-0.21;99.78;101550.09;5282929;28;20491;-76
2022/12/04 06:45:01;;;;;;;64.67;40.80;;;;;;;-0.17;99.72;101550.22;5283805;28;20059;-76
2022/12/04 06:47:35;;;;;;;79.00;49.53;;;;;;;-0.25;99.43;101545.63;5282706;28;20100;-77
2022/12/04 06:50:07;;;;;;;76.85;45.53;;;;;;;-0.23;99.65;101551.69;5283043;28;20056;-77
2022/12/04 06:52:38;;;;;;;68.13;40.67;;;;;;;-0.25;99.74;101550.75;5282960;28;20033;-76
2022/12/04 06:55:09;;;;;;;61.17;38.53;;;;;;;-0.21;99.38;101550.09;5283568;28;20048;-76
2022/12/04 06:57:41;;;;;;;75.40;46.30;;;;;;;-0.22;99.51;101548.31;5282621;28;20039;-76
2022/12/04 07:00:12;;;;;;;63.63;39.50;;;;;;;-0.19;99.72;101557.84;5282593;28;20036;-76
2022/12/04 07:02:44;;;;;;;62.20;40.37;;;;;;;-0.19;99.73;101561.28;5282495;28;20471;-77
2022/12/04 07:05:15;;;;;;;63.23;42.87;;;;;;;-0.16;99.71;101559.66;5283374;28;20067;-76
2022/12/04 07:07:47;;;;;;;64.23;39.23;;;;;;;-0.17;99.89;101561.34;5284727;28;20099;-76
2022/12/04 07:10:18;;;;;;;63.97;37.87;;;;;;;-0.16;99.73;101564.78;5286819;28;20028;-77
2022/12/04 07:12:49;;;;;;;64.93;38.07;;;;;;;-0.15;99.87;101569.09;5287020;28;20234;-76
2022/12/04 07:15:21;;;;;;;60.10;39.67;;;;;;;-0.14;99.54;101563.19;5268664;28;20036;-76
2022/12/04 07:17:52;;;;;;;60.00;39.47;;;;;;;-0.08;99.72;101577.13;5286315;28;20064;-77
2022/12/04 07:20:24;;;;;;;61.40;39.57;;;;;;;-0.14;100.00;101569.16;5286861;28;20480;-76
2022/12/04 07:22:55;;;;;;;64.30;40.50;;;;;;;-0.14;99.59;101576.84;5286116;28;20079;-76
2022/12/04 07:25:28;;;;;;;58.97;37.50;;;;;;;-0.13;99.40;101581.19;5286274;28;20056;-77
2022/12/04 07:27:59;;;;;;;58.28;37.67;;;;;;;-0.18;99.36;101580.06;5285889;28;20516;-77
2022/12/04 07:30:31;;;;;;;60.90;38.37;;;;;;;-0.15;99.51;101590.47;5286300;28;20032;-76
2022/12/04 07:33:03;;;;;;;60.43;38.87;;;;;;;-0.15;99.74;101582.78;5286671;28;20036;-76
2022/12/04 07:35:34;;;;;;;62.10;39.13;;;;;;;-0.12;100.00;101584.63;5285993;28;20468;-76
2022/12/04 07:38:06;;;;;;;58.77;39.87;;;;;;;-0.15;99.84;101582.78;5279214;28;20047;-76
2022/12/04 07:40:37;;;;;;;59.00;37.43;;;;;;;-0.14;99.82;101574.28;5299803;28;20036;-76
2022/12/04 07:43:08;;;;;;;60.40;37.40;;;;;;;-0.12;99.73;101582.03;5294520;28;20032;-77
2022/12/04 07:45:40;;;;;;;57.23;38.10;;;;;;;-0.08;99.71;101579.69;5291774;28;20071;-76
2022/12/04 07:48:11;;;;;;;56.27;35.40;;;;;;;-0.09;99.78;101583.06;5293222;28;20393;-77
2022/12/04 07:50:43;;;;;;;57.97;37.13;;;;;;;-0.04;99.58;101588.38;5292621;28;20039;-73
2022/12/04 07:53:14;;;;;;;56.17;36.87;;;;;;;-0.05;99.94;101592.63;5290267;28;20040;-73
2022/12/04 07:55:51;;;;;;;52.67;35.10;;;;;;;-0.04;99.65;101585.81;5289559;28;20028;-73
2022/12/04 07:58:22;;;;;;;55.42;34.75;;;;;;;-0.02;99.63;101587.66;5290045;28;20112;-73
2022/12/04 08:00:53;;;;;;;54.77;36.37;;;;;;;0.01;99.37;101593.72;5288949;28;20116;-73
2022/12/04 08:03:25;;;;;;;56.33;37.07;;;;;;;0.01;99.28;101596.28;5287943;28;20025;-73
2022/12/04 08:06:04;;;;;;;52.05;35.05;;;;;;;0.02;99.03;101590.31;5288322;28;20364;-73
2022/12/04 08:08:36;;;;;;;50.25;32.92;;;;;;;0.02;99.07;101600.56;5286984;28;20078;-73
2022/12/04 08:11:11;;;;;;;50.63;32.67;;;;;;;0.05;98.86;101599.03;5287841;28;20029;-73
2022/12/04 08:13:42;;;;;;;56.97;34.05;;;;;;;0.09;98.33;101593.22;5286887;28;20021;-74
2022/12/04 08:16:14;;;;;;;48.85;32.78;;;;;;;0.10;98.72;101602.66;5285803;28;20048;-74
2022/12/04 08:18:47;;;;;;;53.57;34.10;;;;;;;0.11;98.24;101599.31;5286307;28;20058;-74
2022/12/04 08:21:20;;;;;;;;;;;;;;;0.23;98.31;101603.22;5285699;28;20029;-74
2022/12/04 08:23:52;;;;;;;45.15;30.80;;;;;;;0.20;98.03;101603.94;5285393;28;19912;-73
2022/12/04 08:26:27;;;;;;;49.67;32.58;;;;;;;0.18;97.94;101603.88;5285549;28;20033;-74
2022/12/04 08:29:00;;;;;;;51.00;31.60;;;;;;;0.20;97.81;101611.63;5286668;28;20355;-73
2022/12/04 08:31:34;;;;;;;48.65;32.42;;;;;;;0.23;98.06;101604.06;5285313;28;20116;-74
2022/12/04 08:34:06;;;;;;;49.72;33.60;;;;;;;0.19;97.70;101607.31;5285466;28;20382;-74
2022/12/04 08:36:38;;;;;;;49.30;30.92;;;;;;;0.23;97.42;101606.63;5285834;28;20403;-75
2022/12/04 08:39:11;;;;;;;47.63;32.10;;;;;;;0.29;97.26;101600.88;5284813;28;20039;-74
2022/12/04 08:41:43;;;;;;;49.80;31.90;;;;;;;0.33;97.66;101603.63;5284960;28;20124;-74
2022/12/04 08:44:14;;;;;;;46.60;31.47;;;;;;;0.39;97.50;101595.34;5286292;28;20098;-74
2022/12/04 08:46:45;;;;;;;45.50;30.07;;;;;;;0.41;96.91;101597.97;5266399;28;20127;-74
2022/12/04 08:49:18;;;;;;;43.10;30.90;;;;;;;0.45;96.98;101592.13;5267297;28;20140;-75
2022/12/04 08:51:49;;;;;;;41.50;29.95;;;;;;;0.47;96.51;101599.09;5266211;28;20055;-72
2022/12/04 08:54:20;;;;;;;43.73;29.23;;;;;;;0.51;96.53;101595.81;5284466;28;20037;-73
2022/12/04 08:56:52;;;;;;;42.70;29.93;;;;;;;0.53;96.01;101589.09;5284167;28;20028;-73
2022/12/04 08:59:23;;;;;;;49.37;35.53;;;;;;;0.60;95.88;101579.09;5284198;28;20132;-73
2022/12/04 09:01:55;;;;;;;45.33;30.20;;;;;;;0.59;95.29;101593.59;5284771;28;20032;-73
2022/12/04 09:04:26;;;;;;;40.63;27.37;;;;;;;0.60;95.08;101584.22;5266328;28;20044;-73
2022/12/04 09:06:57;;;;;;;36.70;25.97;;;;;;;0.69;95.21;101580.34;5284137;28;20048;-73
2022/12/04 09:09:29;;;;;;;33.77;24.87;;;;;;;0.76;95.12;101588.25;5284190;28;20539;-74
2022/12/04 09:12:00;;;;;;;40.93;27.20;;;;;;;0.77;94.24;101590.00;5283374;28;20031;-74
2022/12/04 09:14:32;;;;;;;36.87;25.93;;;;;;;0.82;93.97;101591.06;5283872;28;20030;-74
2022/12/04 09:17:03;;;;;;;39.13;25.63;;;;;;;0.84;93.51;101595.47;5283832;28;20032;-74
2022/12/04 09:19:36;;;;;;;39.23;27.63;;;;;;;0.82;93.60;101589.41;5283786;28;20036;-73
2022/12/04 09:22:07;;;;;;;35.85;25.60;;;;;;;0.91;93.50;101591.44;5283810;28;20111;-73
2022/12/04 09:24:38;;;;;;;35.07;25.33;;;;;;;0.95;93.46;101593.34;5283762;28;20131;-73
2022/12/04 09:27:10;;;;;;;36.13;24.37;;;;;;;0.93;92.94;101604.34;5283744;28;20029;-74
2022/12/04 09:29:41;;;;;;;35.30;24.70;;;;;;;0.93;92.44;101606.91;5283913;28;20041;-74
2022/12/04 09:32:13;;;;;;;36.67;25.27;;;;;;;0.91;92.80;101602.56;5266538;28;20060;-74
2022/12/04 09:34:46;;;;;;;38.70;25.33;;;;;;;1.00;92.78;101599.50;5284667;28;20056;-75
2022/12/04 09:37:18;;;;;;;34.00;23.33;;;;;;;1.03;91.51;101606.44;5284260;28;20033;-73
2022/12/04 09:39:49;;;;;;;35.30;24.13;;;;;;;1.06;91.58;101601.44;5284284;28;20029;-75
2022/12/04 09:42:33;;;;;;;35.57;24.57;;;;;;;1.11;91.96;101604.19;5284818;28;20020;-74
2022/12/04 09:45:14;;;;;;;34.00;23.13;;;;;;;1.09;91.52;101596.41;5283425;28;20064;-76
2022/12/04 09:47:52;;;;;;;34.17;24.20;;;;;;;1.04;90.70;101592.81;5284144;28;20049;-72
2022/12/04 09:50:43;;;;;;;33.00;23.63;;;;;;;0.96;91.50;101592.50;5265849;28;20048;-74
2022/12/04 09:53:27;;;;;;;33.10;22.85;;;;;;;0.91;91.18;101594.88;5283440;28;20111;-74
2022/12/04 09:56:06;;;;;;;34.42;23.10;;;;;;;0.88;91.24;101602.44;5266053;28;20028;-74
2022/12/04 09:58:45;;;;;;;42.08;27.00;;;;;;;0.80;91.13;101600.41;5283061;28;20033;-74
2022/12/04 10:01:38;;;;;;;31.17;21.35;;;;;;;0.77;91.06;101608.84;5282790;28;20032;-74
2022/12/04 10:04:10;;;;;;;35.50;23.00;;;;;;;0.71;91.61;101608.63;5283543;28;20040;-74
2022/12/04 10:07:08;;;;;;;32.17;22.83;;;;;;;0.76;91.46;101622.50;5265447;28;20036;-73
2022/12/04 10:10:10;;;;;;;32.95;22.10;;;;;;;0.68;91.76;101608.50;5283814;28;20036;-75
2022/12/04 10:12:53;;;;;;;31.67;20.27;;;;;;;0.65;91.45;101606.66;5284102;28;20039;-74
2022/12/04 10:15:31;;;;;;;31.20;20.50;;;;;;;0.66;92.22;101612.66;5284004;28;20040;-74
2022/12/04 10:18:18;;;;;;;29.65;20.63;;;;;;;0.61;91.39;101602.25;5283696;28;20032;-74
2022/12/04 10:21:33;;;;;;;31.15;21.60;;;;;;;0.65;91.83;101600.66;5283926;28;20043;-74
2022/12/04 10:24:35;;;;;;;31.08;21.77;;;;;;;0.62;91.37;101593.72;5284205;28;20033;-73
2022/12/04 10:27:24;;;;;;;30.95;22.00;;;;;;;0.65;91.76;101598.09;5239912;28;20090;-74
2022/12/04 10:30:03;;;;;;;32.38;21.35;;;;;;;0.61;92.18;101602.25;5284170;28;20111;-73
2022/12/04 10:32:35;;;;;;;31.73;20.38;;;;;;;0.56;92.14;101597.72;5283594;28;20033;-74
2022/12/04 10:35:23;;;;;;;28.48;20.67;;;;;;;0.65;91.51;101595.53;5283034;28;20040;-74
2022/12/04 10:38:02;;;;;;;32.83;21.27;;;;;;;0.54;91.35;101602.78;5283352;28;20029;-74
2022/12/04 10:40:45;;;;;;;32.22;20.75;;;;;;;0.56;91.72;101607.97;5283182;28;20456;-74
2022/12/04 10:43:35;;;;;;;38.97;24.52;;;;;;;0.59;92.30;101611.53;5286216;28;20158;-73
2022/12/04 10:46:12;;;;;;;43.42;28.48;;;;;;;0.63;92.43;101615.09;5284885;28;20117;-73
2022/12/04 10:48:47;;;;;;;43.42;30.10;;;;;;;0.64;92.29;101612.59;5286771;28;20392;-73
2022/12/04 10:51:21;;;;;;;33.85;22.75;;;;;;;0.63;92.39;101605.75;5268813;28;20032;-74
2022/12/04 10:53:54;;;;;;;32.58;23.30;;;;;;;0.66;92.81;101602.41;5286680;28;20368;-74
2022/12/04 10:56:26;;;;;;;35.50;24.30;;;;;;;0.62;92.41;101596.28;5286608;28;20115;-74
2022/12/04 10:59:00;;;;;;;36.23;23.20;;;;;;;0.65;92.55;101593.84;5286707;28;20539;-74
2022/12/04 11:01:34;;;;;;;33.33;22.85;;;;;;;0.65;92.02;101595.53;5286325;28;20024;-73
2022/12/04 11:04:09;;;;;;;30.48;21.27;;;;;;;0.66;92.44;101587.91;5269399;28;20028;-74
2022/12/04 11:06:40;;;;;;;31.98;20.25;;;;;;;0.68;91.57;101590.53;5286249;28;20036;-74
2022/12/04 11:09:21;;;;;;;30.40;20.00;;;;;;;0.69;92.53;101582.91;5286785;28;20351;-74
2022/12/04 11:12:05;;;;;;;31.42;21.75;;;;;;;0.70;92.46;101579.50;5286943;28;20464;-74
2022/12/04 11:14:36;;;;;;;32.20;20.63;;;;;;;0.64;92.50;101584.38;5286248;28;20095;-74
2022/12/04 11:17:15;;;;;;;29.17;20.63;;;;;;;0.70;92.95;101570.94;5286412;28;20047;-72
2022/12/04 11:20:17;;;;;;;30.92;22.33;;;;;;;0.80;92.31;101564.47;5289332;28;20036;-74
2022/12/04 11:22:52;;;;;;;34.50;22.40;;;;;;;0.75;92.53;101563.41;5287294;28;20068;-73
2022/12/04 11:25:32;;;;;;;31.95;21.58;;;;;;;0.74;92.42;101570.22;5288292;28;20099;-73
2022/12/04 11:28:04;;;;;;;28.80;21.08;;;;;;;0.70;92.73;101558.97;5286954;28;20443;-75
2022/12/04 11:30:37;;;;;;;30.70;20.73;;;;;;;0.72;92.81;101552.22;5289150;28;20066;-76
2022/12/04 11:33:26;;;;;;;29.65;20.65;;;;;;;0.75;92.55;101555.72;5288927;28;20028;-74
2022/12/04 11:36:01;;;;;;;31.52;20.58;;;;;;;0.78;92.23;101548.16;5290326;28;20075;-75
2022/12/04 11:38:34;;;;;;;30.67;20.85;;;;;;;0.78;92.35;101553.28;5290290;28;20033;-75
2022/12/04 11:41:21;;;;;;;31.58;20.60;;;;;;;0.79;91.50;101552.44;5286675;28;20032;-73
2022/12/04 11:43:53;;;;;;;30.60;20.90;;;;;;;0.74;92.20;101557.38;5288047;28;20452;-74
2022/12/04 11:46:29;;;;;;;28.33;20.35;;;;;;;0.68;92.60;101555.47;5286969;28;20049;-74
2022/12/04 11:49:02;;;;;;;31.02;22.20;;;;;;;0.69;92.48;101557.25;5287420;28;20031;-74
2022/12/04 11:51:58;;;;;;;27.98;20.15;;;;;;;0.71;92.34;101560.72;5288887;28;20036;-75
2022/12/04 11:54:57;;;;;;;28.83;20.30;;;;;;;0.69;92.32;101564.94;5289143;28;20052;-74
2022/12/04 11:57:56;;;;;;;31.42;21.92;;;;;;;0.64;92.39;101556.16;5289074;28;20027;-72
2022/12/04 12:00:30;;;;;;;32.15;22.52;;;;;;;0.65;92.83;101554.47;5287561;28;20089;-71
2022/12/04 12:03:07;;;;;;;31.85;21.83;;;;;;;0.68;92.78;101552.91;5287316;28;20078;-73
2022/12/04 12:06:05;;;;;;;65.30;43.47;;;;;;;0.69;93.33;101548.63;5287291;28;20470;-74
2022/12/04 12:08:53;;;;;;;39.03;28.65;;;;;;;0.76;92.99;101542.94;5287226;28;20037;-71